This is the latest recevied weather packets stored in our database for station/object SP2NBH-2. If no packets are shown the sender has not sent any weather packets the latest 10 day(s).
| Time | Temp. | Humidity | Pressure | Rain* | Wind** | Luminosity | Snow |
|---|---|---|---|---|---|---|---|
| 1777638997 | 23.33° C | 30% | 1027.7 hPa | - | - | - | - |
| 1777638097 | 22.78° C | 31% | 1027.7 hPa | - | - | - | - |
| 1777637197 | 23.33° C | 29% | 1027.7 hPa | - | - | - | - |
| 1777636330 | 22.78° C | 30% | 1027.8 hPa | - | - | - | - |
| 1777636296 | 22.78° C | 30% | 1027.8 hPa | - | - | - | - |
| 1777635396 | 23.33° C | 29% | 1027.7 hPa | - | - | - | - |
| 1777634496 | 22.22° C | 31% | 1027.6 hPa | - | - | - | - |
| 1777633596 | 20.56° C | 33% | 1027.9 hPa | - | - | - | - |
| 1777632696 | 23.33° C | 29% | 1027.9 hPa | - | - | - | - |
| 1777631796 | 32.22° C | 24% | 1027.9 hPa | - | - | - | - |
| 1777630896 | 29.44° C | 23% | 1027.9 hPa | - | - | - | - |
| 1777629996 | 28.89° C | 25% | 1028 hPa | - | - | - | - |
| 1777628244 | 26.67° C | 28% | 1028.3 hPa | - | - | - | - |
| 1777628196 | 26.67° C | 28% | 1028.3 hPa | - | - | - | - |
| 1777627296 | 25° C | 29% | 1028.5 hPa | - | - | - | - |
| 1777626396 | 24.44° C | 29% | 1028.6 hPa | - | - | - | - |
| 1777625532 | 23.33° C | 30% | 1028.8 hPa | - | - | - | - |
| 1777625496 | 23.33° C | 30% | 1028.8 hPa | - | - | - | - |
| 1777624643 | 21.67° C | 31% | 1028.9 hPa | - | - | - | - |
| 1777624596 | 21.67° C | 31% | 1028.9 hPa | - | - | - | - |
| 1777623696 | 20.56° C | 33% | 1028.9 hPa | - | - | - | - |
| 1777622846 | 20.56° C | 36% | 1028.9 hPa | - | - | - | - |
| 1777622796 | 20.56° C | 36% | 1028.9 hPa | - | - | - | - |
| 1777621086 | 17.22° C | 38% | 1029.1 hPa | - | - | - | - |
| 1777620186 | 16.67° C | 40% | 1029.1 hPa | - | - | - | - |
* Rain since midnight (hover to see other rain measurements)
** Current wind speed in m/s (hover to see current wind gust speed)